Augusta, Georgia
Current Conditions -  °F | °C
As of 8:21 AM on Monday 29 Dec 2014 (Local Time) from KDNL Reporting Station
Overcast Overcast  
Wind Chill: 59°   Ceiling: 1300
Heat Index: 59°   Visibility: 10mi
Dew Point: 57°   Wind: 6mph
Humidity: 93%   Direction: 40°NE
Pressure: 30.07"   Gusts: NA
Location:  33.48°N, 81.97°W
Report Text: KDNL 291321Z AUTO 04005KT 10SM FEW007 OVC013 15/14 A3007 RMK AO2 T01500139
Loading
Personal Weather Stations






























Interactive Weather Map New forecast layout! Learn more

10-Day Weather Forecast

Advertisements
Track Severe Weather on mobile